Corral De Lorca, Argentina
Current Conditions -  °F | °C
As of 8:00 AM on Tuesday 21 Oct 2014 (Local Time) from SAME Reporting Station
Clear Clear  
Wind Chill: 66°   Ceiling: Unl
Heat Index: 66°   Visibility: 6mi
Dew Point: 50°   Wind: 0mph
Humidity: 56%   Direction: NA
Pressure: 29.97"   Gusts: NA
Location:  34.7°S, 67.05°W
Report Text: SAME 211100Z 00000KT CAVOK 19/10 Q1015
Loading
Personal Weather Stations






























Interactive Weather Map
Tropical Storm Tracking
New forecast layout! Learn more

10-Day Weather Forecast

Advertisements
Track Severe Weather on mobile